createdAt,value
2018-09-14T00:00:39.526Z,8.28
2018-09-14T00:03:07.304Z,7.67
2018-09-14T00:05:34.274Z,9.55
2018-09-14T00:08:01.618Z,7.23
2018-09-14T00:10:28.528Z,8.97
2018-09-14T00:12:55.546Z,9.93
2018-09-14T00:15:22.484Z,6.53
2018-09-14T00:17:49.425Z,7.03
2018-09-14T00:20:16.379Z,7.00
2018-09-14T00:22:43.299Z,11.13
2018-09-14T00:25:10.268Z,9.33
2018-09-14T00:27:37.838Z,9.23
2018-09-14T00:30:04.790Z,9.63
2018-09-14T00:32:31.759Z,11.35
2018-09-14T00:34:58.655Z,9.07
2018-09-14T00:37:25.632Z,12.87
2018-09-14T00:39:52.687Z,8.23
2018-09-14T00:42:19.654Z,7.35
2018-09-14T00:44:46.656Z,6.17
2018-09-14T00:47:13.648Z,11.53
2018-09-14T00:49:40.680Z,6.92
2018-09-14T00:52:07.614Z,8.85
2018-09-14T00:54:34.731Z,5.90
2018-09-14T00:57:01.724Z,7.37
2018-09-14T00:59:28.656Z,8.03
2018-09-14T01:01:55.625Z,7.00
2018-09-14T01:04:22.593Z,7.15
2018-09-14T01:06:49.552Z,6.00
2018-09-14T01:09:22.418Z,7.08
2018-09-14T01:11:49.391Z,12.70
2018-09-14T01:14:16.316Z,9.80
2018-09-14T01:16:43.646Z,8.78
2018-09-14T01:19:10.738Z,9.70
2018-09-14T01:21:37.674Z,6.97
2018-09-14T01:24:04.608Z,5.47
2018-09-14T01:26:31.528Z,8.80
2018-09-14T01:28:58.447Z,7.53
2018-09-14T01:31:25.426Z,10.67
2018-09-14T01:33:52.347Z,6.55
2018-09-14T01:36:19.288Z,6.30
2018-09-14T01:38:46.339Z,5.93
2018-09-14T01:41:13.253Z,6.33
2018-09-14T01:43:40.225Z,4.97
2018-09-14T01:46:07.351Z,4.83
2018-09-14T01:48:34.316Z,4.92
2018-09-14T01:51:01.262Z,6.22
2018-09-14T01:53:28.159Z,5.67
2018-09-14T01:55:55.018Z,8.23
2018-09-14T01:58:21.990Z,7.12
2018-09-14T02:00:48.967Z,7.87
2018-09-14T02:03:15.991Z,7.00
2018-09-14T02:05:42.857Z,11.57
2018-09-14T02:08:09.790Z,7.70
2018-09-14T02:10:36.699Z,8.98
2018-09-14T02:13:03.625Z,7.23
2018-09-14T02:15:30.584Z,7.90
2018-09-14T02:17:57.524Z,8.48
2018-09-14T02:20:24.432Z,7.92
2018-09-14T02:22:51.330Z,10.80
2018-09-14T02:25:18.312Z,7.10
2018-09-14T02:27:45.229Z,9.48
2018-09-14T02:30:12.129Z,11.08
2018-09-14T02:32:39.050Z,6.60
2018-09-14T02:35:06.008Z,6.90
2018-09-14T02:37:32.931Z,9.48
2018-09-14T02:40:00.109Z,6.75
2018-09-14T02:42:27.718Z,9.08
2018-09-14T02:44:54.696Z,6.83
2018-09-14T02:47:21.676Z,9.10
2018-09-14T02:49:48.683Z,9.48
2018-09-14T02:52:15.591Z,10.43
2018-09-14T02:55:06.233Z,9.73
2018-09-14T02:57:33.180Z,8.73
2018-09-14T03:00:00.168Z,8.67
2018-09-14T03:02:27.243Z,9.43
2018-09-14T03:04:54.274Z,10.63
2018-09-14T03:07:21.160Z,8.43
2018-09-14T03:09:48.180Z,5.97
2018-09-14T03:12:15.092Z,6.90
2018-09-14T03:14:41.997Z,10.65
2018-09-14T03:17:08.900Z,7.00
2018-09-14T03:19:35.955Z,8.48
2018-09-14T03:22:02.907Z,10.32
2018-09-14T03:24:29.834Z,8.00
2018-09-14T03:26:56.816Z,9.57
2018-09-14T03:29:23.714Z,8.63
2018-09-14T03:31:50.635Z,10.35
2018-09-14T03:34:17.531Z,10.93
2018-09-14T03:36:44.450Z,7.70
2018-09-14T03:39:11.444Z,7.95
2018-09-14T03:41:38.656Z,8.20
2018-09-14T03:44:05.592Z,8.68
2018-09-14T03:46:32.491Z,9.85
2018-09-14T03:48:59.439Z,8.15
2018-09-14T03:51:26.332Z,9.87
2018-09-14T03:53:53.317Z,9.35
2018-09-14T03:56:20.302Z,9.28
2018-09-14T03:58:47.256Z,6.92
2018-09-14T04:01:14.274Z,10.50
2018-09-14T04:03:41.266Z,10.93
2018-09-14T04:06:08.270Z,10.50
2018-09-14T04:08:35.488Z,10.60
2018-09-14T04:11:02.387Z,12.13
2018-09-14T04:13:29.288Z,13.72
2018-09-14T04:15:56.217Z,12.77
2018-09-14T04:18:23.964Z,11.50
2018-09-14T04:20:50.870Z,15.73
2018-09-14T04:23:17.755Z,16.23
2018-09-14T04:25:44.781Z,15.20
2018-09-14T04:28:11.735Z,15.63
2018-09-14T04:30:38.715Z,13.88
2018-09-14T04:33:05.649Z,13.65
2018-09-14T04:35:32.592Z,15.87
2018-09-14T04:37:59.634Z,16.65
2018-09-14T04:40:26.531Z,15.03
2018-09-14T04:42:53.459Z,19.50
2018-09-14T04:45:20.448Z,16.52
2018-09-14T04:47:47.361Z,15.93
2018-09-14T04:50:14.289Z,12.35
2018-09-14T04:52:41.185Z,13.25
2018-09-14T04:55:08.148Z,13.55
2018-09-14T04:57:35.834Z,13.08
2018-09-14T05:00:02.823Z,13.98
2018-09-14T05:02:29.734Z,14.30
2018-09-14T05:04:56.637Z,16.43
2018-09-14T05:07:23.615Z,17.97
2018-09-14T05:09:50.519Z,15.20
2018-09-14T05:12:17.426Z,15.98
2018-09-14T05:14:44.539Z,22.43
2018-09-14T05:17:11.439Z,18.93
2018-09-14T05:19:38.327Z,16.90
2018-09-14T05:22:05.217Z,21.27
2018-09-14T05:24:32.114Z,20.27
2018-09-14T05:26:59.031Z,16.85
2018-09-14T05:29:25.905Z,17.37
2018-09-14T05:31:52.827Z,19.60
2018-09-14T05:34:19.707Z,19.57
2018-09-14T05:36:46.675Z,17.20
2018-09-14T05:39:13.620Z,17.57
2018-09-14T05:41:40.505Z,17.95
2018-09-14T05:44:07.443Z,18.05
2018-09-14T05:46:34.355Z,19.45
2018-09-14T05:49:01.290Z,19.67
2018-09-14T05:51:28.203Z,18.60
2018-09-14T05:53:59.123Z,19.43
2018-09-14T05:56:26.143Z,14.75
2018-09-14T05:58:53.114Z,17.65
2018-09-14T06:01:20.284Z,17.40
2018-09-14T06:03:47.429Z,19.87
2018-09-14T06:06:14.486Z,18.75
2018-09-14T06:08:41.652Z,16.40
2018-09-14T06:11:08.643Z,18.02
2018-09-14T06:13:35.734Z,15.55
2018-09-14T06:16:02.720Z,13.00
2018-09-14T06:18:29.691Z,16.20
2018-09-14T06:20:56.697Z,11.22
2018-09-14T06:23:23.940Z,13.48
2018-09-14T06:25:50.973Z,12.65
2018-09-14T06:28:17.976Z,13.83
2018-09-14T06:30:45.008Z,13.20
2018-09-14T06:33:12.018Z,15.23
2018-09-14T06:35:39.575Z,18.57
2018-09-14T06:38:06.983Z,13.70
2018-09-14T06:40:34.104Z,14.60
2018-09-14T06:43:01.045Z,11.55
2018-09-14T06:45:28.182Z,11.45
2018-09-14T06:47:55.151Z,12.82
2018-09-14T06:50:22.120Z,15.35
2018-09-14T06:52:49.114Z,13.95
2018-09-14T06:55:16.044Z,16.52
2018-09-14T06:57:43.144Z,11.48
2018-09-14T07:00:10.431Z,15.40
2018-09-14T07:02:37.403Z,11.65
2018-09-14T07:05:05.403Z,11.43
2018-09-14T07:07:32.389Z,8.58
2018-09-14T07:10:00.478Z,10.15
2018-09-14T07:12:27.552Z,9.45
2018-09-14T07:14:54.549Z,11.85
2018-09-14T07:17:21.653Z,10.40
2018-09-14T07:19:48.778Z,9.75
2018-09-14T07:22:15.802Z,10.90
2018-09-14T07:24:42.931Z,7.42
2018-09-14T07:27:10.013Z,14.83
2018-09-14T07:29:37.202Z,11.10
2018-09-14T07:32:04.337Z,11.95
2018-09-14T07:34:31.322Z,12.53
2018-09-14T07:36:58.384Z,7.75
2018-09-14T07:39:25.458Z,11.55
2018-09-14T07:41:52.464Z,7.53
2018-09-14T07:44:19.465Z,8.98
2018-09-14T07:46:46.449Z,13.28
2018-09-14T07:49:13.454Z,13.22
2018-09-14T07:51:40.547Z,13.62
2018-09-14T07:54:07.539Z,8.48
2018-09-14T07:56:34.485Z,15.25
2018-09-14T07:59:02.353Z,10.58
2018-09-14T08:01:29.424Z,8.28
2018-09-14T08:03:56.504Z,10.90
2018-09-14T08:06:24.051Z,8.60
2018-09-14T08:08:51.064Z,10.82
2018-09-14T08:11:18.082Z,13.35
2018-09-14T08:13:45.150Z,12.28
2018-09-14T08:16:13.176Z,12.55
2018-09-14T08:18:40.210Z,14.98
2018-09-14T08:21:10.013Z,14.13
2018-09-14T08:23:37.383Z,13.03
2018-09-14T08:26:04.404Z,11.83
2018-09-14T08:28:31.404Z,12.85
2018-09-14T08:30:58.548Z,11.25
2018-09-14T08:33:25.517Z,9.85
2018-09-14T08:35:52.714Z,10.00
2018-09-14T08:38:19.752Z,9.88
2018-09-14T08:40:46.957Z,12.18
2018-09-14T08:43:14.148Z,14.00
2018-09-14T08:45:41.204Z,9.65
2018-09-14T08:48:08.186Z,7.10
2018-09-14T08:50:35.692Z,12.75
2018-09-14T08:53:03.124Z,10.95
2018-09-14T08:55:35.643Z,10.23
2018-09-14T08:58:02.758Z,14.33
2018-09-14T09:00:29.773Z,12.88
2018-09-14T09:02:56.776Z,8.25
2018-09-14T09:05:24.442Z,9.83
2018-09-14T09:07:51.483Z,11.68
2018-09-14T09:10:18.504Z,11.33
2018-09-14T09:12:45.524Z,11.10
2018-09-14T09:15:12.748Z,14.43
2018-09-14T09:17:39.733Z,11.22
2018-09-14T09:20:06.722Z,10.78
2018-09-14T09:22:33.727Z,11.95
2018-09-14T09:25:00.686Z,8.28
2018-09-14T09:27:27.728Z,10.50
2018-09-14T09:29:56.476Z,11.70
2018-09-14T09:32:23.516Z,11.50
2018-09-14T09:34:50.587Z,12.37
2018-09-14T09:37:17.765Z,13.70
2018-09-14T09:39:44.929Z,10.38
2018-09-14T09:42:12.137Z,14.30
2018-09-14T09:44:39.124Z,11.97
2018-09-14T09:47:06.130Z,10.00
2018-09-14T09:49:33.280Z,9.75
2018-09-14T09:52:00.220Z,9.73
2018-09-14T09:54:27.212Z,11.55
2018-09-14T09:56:54.217Z,13.80
2018-09-14T09:59:21.259Z,11.95
2018-09-14T10:01:54.176Z,13.55
2018-09-14T10:04:26.896Z,11.30
2018-09-14T10:06:54.268Z,9.60
2018-09-14T10:09:21.308Z,10.70
2018-09-14T10:11:48.391Z,13.65
2018-09-14T10:14:15.462Z,14.75
2018-09-14T10:16:42.536Z,13.80
2018-09-14T10:19:09.986Z,13.20
2018-09-14T10:21:37.149Z,9.45
2018-09-14T10:24:04.392Z,15.75
2018-09-14T10:26:31.453Z,12.78
2018-09-14T10:28:58.550Z,10.90
2018-09-14T10:31:25.514Z,11.80
2018-09-14T10:33:52.643Z,11.28
2018-09-14T10:36:20.268Z,9.58
2018-09-14T10:38:47.323Z,13.18
2018-09-14T10:41:14.355Z,11.18
2018-09-14T10:43:41.438Z,10.05
2018-09-14T10:46:08.509Z,10.38
2018-09-14T10:48:37.310Z,16.07
2018-09-14T10:51:04.309Z,8.20
2018-09-14T10:53:31.247Z,11.78
2018-09-14T10:55:58.242Z,11.68
2018-09-14T10:58:25.306Z,7.53
2018-09-14T11:00:52.372Z,9.58
2018-09-14T11:03:19.308Z,12.82
2018-09-14T11:05:46.327Z,11.63
2018-09-14T11:08:13.304Z,10.23
2018-09-14T11:10:40.381Z,9.95
2018-09-14T11:13:07.530Z,11.90
2018-09-14T11:15:34.603Z,10.13
2018-09-14T11:18:01.791Z,9.00
2018-09-14T11:20:29.742Z,9.33
2018-09-14T11:22:56.878Z,9.63
2018-09-14T11:25:23.925Z,11.78
2018-09-14T11:27:53.649Z,14.60
2018-09-14T11:30:26.504Z,14.18
2018-09-14T11:33:01.304Z,11.28
2018-09-14T11:35:31.740Z,14.23
2018-09-14T11:38:00.290Z,9.75
2018-09-14T11:43:22.963Z,12.40
2018-09-14T11:45:52.951Z,11.53
2018-09-14T11:48:23.368Z,10.60
2018-09-14T11:50:50.424Z,11.75
2018-09-14T11:53:19.244Z,12.25
2018-09-14T11:55:51.308Z,12.95
2018-09-14T11:58:18.467Z,9.45
2018-09-14T12:00:53.237Z,11.50
2018-09-14T12:03:23.710Z,14.38
2018-09-14T12:05:51.360Z,13.68
2018-09-14T12:08:18.418Z,15.85
2018-09-14T12:10:50.662Z,14.50
2018-09-14T12:13:17.834Z,14.47
2018-09-14T12:15:44.927Z,13.48
2018-09-14T12:18:12.260Z,11.97
2018-09-14T12:21:05.052Z,12.07
2018-09-14T12:23:34.064Z,17.90
2018-09-14T12:26:01.209Z,14.85
2018-09-14T12:28:28.337Z,13.55
2018-09-14T12:30:55.239Z,11.00
2018-09-14T12:33:22.284Z,17.45
2018-09-14T12:35:49.383Z,17.05
2018-09-14T12:38:16.618Z,12.70
2018-09-14T12:40:43.649Z,12.40
2018-09-14T12:43:10.750Z,13.68
2018-09-14T12:45:37.792Z,12.28
2018-09-14T12:48:04.790Z,12.88
2018-09-14T12:50:31.880Z,14.13
2018-09-14T12:52:59.120Z,12.63
2018-09-14T12:55:26.157Z,11.50
2018-09-14T12:57:53.435Z,9.15
2018-09-14T13:00:20.440Z,12.43
2018-09-14T13:02:47.429Z,8.90
2018-09-14T13:05:14.428Z,13.15
2018-09-14T13:07:51.160Z,14.58
2018-09-14T13:10:18.290Z,9.95
2018-09-14T13:12:46.233Z,11.73
2018-09-14T13:15:14.161Z,7.75
2018-09-14T13:17:41.176Z,11.85
2018-09-14T13:20:08.246Z,10.63
2018-09-14T13:23:01.597Z,9.33
2018-09-14T13:25:28.748Z,11.75
2018-09-14T13:27:55.816Z,9.28
2018-09-14T13:30:22.872Z,10.30
2018-09-14T13:32:51.988Z,8.98
2018-09-14T13:35:20.731Z,12.65
2018-09-14T13:37:48.017Z,13.55
2018-09-14T13:40:15.384Z,9.08
2018-09-14T13:42:42.677Z,11.30
2018-09-14T13:45:09.785Z,13.48
2018-09-14T13:47:36.940Z,6.20
2018-09-14T13:50:03.979Z,12.65
2018-09-14T13:52:31.004Z,7.55
2018-09-14T13:54:58.732Z,9.95
2018-09-14T13:57:25.871Z,11.22
2018-09-14T13:59:52.920Z,12.43
2018-09-14T14:02:20.002Z,7.95
2018-09-14T14:04:47.082Z,8.60
2018-09-14T14:07:14.156Z,10.03
2018-09-14T14:09:41.299Z,9.63
2018-09-14T14:12:15.230Z,11.12
2018-09-14T14:14:43.596Z,12.97
2018-09-14T14:17:11.004Z,12.90
2018-09-14T14:19:39.826Z,6.60
2018-09-14T14:22:07.387Z,6.78
2018-09-14T14:24:34.401Z,8.73
2018-09-14T14:27:01.495Z,7.62
2018-09-14T14:29:28.561Z,9.90
2018-09-14T14:31:56.391Z,7.70
2018-09-14T14:34:23.597Z,9.73
2018-09-14T14:36:50.600Z,9.05
2018-09-14T14:39:17.612Z,9.25
2018-09-14T14:41:44.675Z,7.62
2018-09-14T14:44:13.025Z,7.00
2018-09-14T14:46:40.034Z,4.85
2018-09-14T14:49:08.509Z,6.47
2018-09-14T14:51:35.679Z,5.37
2018-09-14T14:54:02.799Z,9.78
2018-09-14T14:56:34.732Z,5.22
2018-09-14T14:59:01.806Z,4.80
2018-09-14T15:01:28.880Z,5.00
2018-09-14T15:03:55.992Z,4.75
2018-09-14T15:06:23.562Z,9.03
2018-09-14T15:08:51.187Z,6.67
2018-09-14T15:11:18.181Z,7.45
2018-09-14T15:13:45.470Z,10.75
2018-09-14T15:16:12.497Z,6.10
2018-09-14T15:18:39.556Z,7.55
2018-09-14T15:21:06.739Z,4.85
2018-09-14T15:23:33.779Z,6.20
2018-09-14T15:26:00.832Z,5.97
2018-09-14T15:28:27.904Z,7.10
2018-09-14T15:30:55.063Z,6.60
2018-09-14T15:33:22.140Z,6.37
2018-09-14T15:35:49.125Z,7.53
2018-09-14T15:38:16.297Z,5.85
2018-09-14T15:40:44.617Z,5.62
2018-09-14T15:43:11.765Z,4.50
2018-09-14T15:45:38.853Z,3.55
2018-09-14T15:48:05.867Z,5.15
2018-09-14T15:50:32.871Z,7.90
2018-09-14T15:57:58.761Z,8.23
2018-09-14T16:00:25.825Z,8.28
2018-09-14T16:02:53.422Z,4.92
2018-09-14T16:05:20.510Z,8.75
2018-09-14T16:07:47.675Z,6.75
2018-09-14T16:10:14.699Z,6.12
2018-09-14T16:12:41.742Z,8.00
2018-09-14T16:15:08.829Z,8.65
2018-09-14T16:17:36.867Z,4.62
2018-09-14T16:20:04.495Z,5.87
2018-09-14T16:22:31.529Z,7.60
2018-09-14T16:24:58.553Z,5.65
2018-09-14T16:27:25.587Z,8.43
2018-09-14T16:29:52.680Z,6.80
2018-09-14T16:32:20.071Z,4.87
2018-09-14T16:34:47.121Z,7.03
2018-09-14T16:37:14.301Z,10.72
2018-09-14T16:39:41.401Z,10.90
2018-09-14T16:42:08.391Z,7.67
2018-09-14T16:44:35.521Z,11.10
2018-09-14T16:47:02.506Z,11.38
2018-09-14T16:49:29.566Z,8.65
2018-09-14T16:51:56.943Z,5.85
2018-09-14T16:54:23.953Z,5.10
2018-09-14T16:56:51.041Z,6.92
2018-09-14T16:59:18.127Z,6.65
2018-09-14T17:01:45.207Z,11.03
2018-09-14T17:04:12.277Z,8.70
2018-09-14T17:06:39.327Z,16.25
2018-09-14T17:09:07.388Z,16.52
2018-09-14T17:11:34.485Z,12.43
2018-09-14T17:14:06.105Z,13.35
2018-09-14T17:16:33.235Z,15.43
2018-09-14T17:19:00.477Z,8.28
2018-09-14T17:21:27.610Z,9.90
2018-09-14T17:23:54.651Z,8.65
2018-09-14T17:26:21.787Z,6.10
2018-09-14T17:28:48.792Z,6.42
2018-09-14T17:31:15.961Z,8.33
2018-09-14T17:33:43.004Z,9.80
2018-09-14T17:36:10.002Z,16.10
2018-09-14T17:38:37.797Z,12.68
2018-09-14T17:41:05.118Z,6.65
2018-09-14T17:43:32.196Z,12.90
2018-09-14T17:45:59.477Z,7.85
2018-09-14T17:48:26.553Z,9.05
2018-09-14T17:50:53.795Z,9.73
2018-09-14T17:53:20.982Z,8.98
2018-09-14T17:55:48.241Z,11.22
2018-09-14T17:58:15.322Z,8.20
2018-09-14T18:00:42.389Z,9.05
2018-09-14T18:03:09.536Z,12.00
2018-09-14T18:05:38.792Z,9.60
2018-09-14T18:08:05.878Z,10.58
2018-09-14T18:10:33.167Z,9.95
2018-09-14T18:13:00.252Z,11.10
2018-09-14T18:15:27.301Z,11.50
2018-09-14T18:17:54.301Z,9.13
2018-09-14T18:20:21.413Z,10.53
2018-09-14T18:22:48.554Z,8.63
2018-09-14T18:25:15.671Z,10.82
2018-09-14T18:27:42.814Z,12.30
2018-09-14T18:30:09.856Z,9.15
2018-09-14T18:32:37.089Z,10.30
2018-09-14T18:35:04.510Z,9.35
2018-09-14T18:37:31.583Z,9.18
2018-09-14T18:39:58.705Z,12.20
2018-09-14T18:42:25.781Z,7.70
2018-09-14T18:44:52.807Z,13.38
2018-09-14T18:47:20.706Z,11.60
2018-09-14T18:49:48.034Z,13.05
2018-09-14T18:52:15.464Z,10.78
2018-09-14T18:54:45.616Z,8.48
2018-09-14T18:57:12.656Z,9.80
2018-09-14T18:59:40.018Z,8.43
2018-09-14T19:02:07.206Z,9.45
2018-09-14T19:04:34.506Z,9.20
2018-09-14T19:07:01.784Z,9.78
2018-09-14T19:09:30.371Z,10.28
2018-09-14T19:11:58.068Z,13.03
2018-09-14T19:14:25.130Z,9.63
2018-09-14T19:16:52.206Z,10.28
2018-09-14T19:19:19.646Z,10.55
2018-09-14T19:21:46.937Z,9.70
2018-09-14T19:24:14.365Z,8.50
2018-09-14T19:26:41.577Z,10.00
2018-09-14T19:29:09.637Z,9.28
2018-09-14T19:31:37.973Z,10.32
2018-09-14T19:34:05.086Z,10.60
2018-09-14T19:36:32.453Z,9.05
2018-09-14T19:38:59.857Z,11.55
2018-09-14T19:41:27.344Z,11.80
2018-09-14T19:43:54.760Z,11.30
2018-09-14T19:46:22.162Z,11.20
2018-09-14T19:48:49.299Z,12.23
2018-09-14T19:51:16.473Z,11.12
2018-09-14T19:53:43.753Z,10.40
2018-09-14T19:56:10.925Z,11.20
2018-09-14T19:58:38.299Z,11.73
2018-09-14T20:01:05.634Z,12.75
2018-09-14T20:03:32.880Z,12.50
2018-09-14T20:06:00.077Z,13.78
2018-09-14T20:08:27.367Z,17.25
2018-09-14T20:10:54.441Z,15.20
2018-09-14T20:13:21.540Z,18.32
2018-09-14T20:15:48.903Z,19.92
2018-09-14T20:18:16.136Z,14.10
2018-09-14T20:20:43.291Z,11.90
2018-09-14T20:23:11.127Z,9.00
2018-09-14T20:25:38.907Z,9.28
2018-09-14T20:28:05.971Z,9.20
2018-09-14T20:30:33.023Z,8.68
2018-09-14T20:33:00.200Z,9.25
2018-09-14T20:35:27.287Z,7.60
2018-09-14T20:37:54.390Z,8.30
2018-09-14T20:40:21.479Z,9.25
2018-09-14T20:42:48.504Z,9.73
2018-09-14T20:45:15.594Z,8.08
2018-09-14T20:47:42.728Z,9.93
2018-09-14T20:50:09.801Z,7.72
2018-09-14T20:52:36.910Z,8.78
2018-09-14T20:55:04.018Z,8.13
2018-09-14T20:57:31.528Z,6.90
2018-09-14T20:59:58.743Z,11.35
2018-09-14T21:02:25.897Z,10.80
2018-09-14T21:04:53.031Z,8.80
2018-09-14T21:07:20.166Z,10.15
2018-09-14T21:09:49.693Z,12.13
2018-09-14T21:12:16.807Z,8.40
2018-09-14T21:14:43.863Z,13.03
2018-09-14T21:17:11.136Z,15.45
2018-09-14T21:19:38.266Z,18.10
2018-09-14T21:22:05.356Z,13.40
2018-09-14T21:24:32.493Z,11.65
2018-09-14T21:26:59.576Z,12.37
2018-09-14T21:29:26.686Z,10.82
2018-09-14T21:31:53.806Z,12.82
2018-09-14T21:34:21.194Z,14.15
2018-09-14T21:36:48.272Z,12.90
2018-09-14T21:39:15.446Z,10.60
2018-09-14T21:41:42.652Z,10.25
2018-09-14T21:44:10.446Z,10.43
2018-09-14T21:46:37.648Z,11.12
2018-09-14T21:49:05.670Z,11.93
2018-09-14T21:51:32.798Z,9.15
2018-09-14T21:53:59.971Z,10.08
2018-09-14T21:56:28.649Z,10.32
2018-09-14T21:58:55.874Z,10.50
2018-09-14T22:01:23.126Z,10.08
2018-09-14T22:03:50.302Z,10.15
2018-09-14T22:06:20.296Z,10.35
2018-09-14T22:08:47.502Z,9.03
2018-09-14T22:11:14.622Z,11.15
2018-09-14T22:13:41.712Z,9.23
2018-09-14T22:16:08.752Z,11.43
2018-09-14T22:18:36.291Z,10.18
2018-09-14T22:21:03.432Z,19.87
2018-09-14T22:23:30.635Z,23.42
2018-09-14T22:25:57.684Z,17.57
2018-09-14T22:28:24.636Z,11.15
2018-09-14T22:30:51.601Z,12.18
2018-09-14T22:33:18.560Z,12.07
2018-09-14T22:35:45.517Z,10.85
2018-09-14T22:38:12.478Z,11.00
2018-09-14T22:40:39.465Z,15.63
2018-09-14T22:43:06.516Z,12.95
2018-09-14T22:45:33.808Z,14.20
2018-09-14T22:48:00.771Z,10.48
2018-09-14T22:50:27.743Z,11.73
2018-09-14T22:52:54.719Z,10.90
2018-09-14T22:55:21.635Z,14.75
2018-09-14T22:57:48.584Z,12.47
2018-09-14T23:00:20.149Z,12.75
2018-09-14T23:02:47.059Z,13.22
2018-09-14T23:05:14.000Z,13.80
2018-09-14T23:07:40.962Z,12.03
2018-09-14T23:10:07.898Z,13.18
2018-09-14T23:12:34.874Z,10.38
2018-09-14T23:15:01.804Z,12.03
2018-09-14T23:17:28.755Z,10.03
2018-09-14T23:19:55.650Z,13.75
2018-09-14T23:22:22.560Z,9.10
2018-09-14T23:24:49.469Z,10.53
2018-09-14T23:27:16.361Z,9.58
2018-09-14T23:29:43.269Z,10.05
2018-09-14T23:32:10.154Z,14.30
2018-09-14T23:34:37.123Z,11.03
2018-09-14T23:37:04.045Z,11.63
2018-09-14T23:39:30.939Z,10.80
2018-09-14T23:41:57.891Z,10.65
2018-09-14T23:44:24.822Z,13.20
2018-09-14T23:46:51.756Z,14.55
2018-09-14T23:49:18.720Z,19.15
2018-09-14T23:51:45.662Z,12.35
2018-09-14T23:54:12.571Z,13.53
2018-09-14T23:56:39.472Z,9.40
2018-09-14T23:59:15.466Z,10.30
